createdAt,value
2023-05-19T00:00:12.000Z,7.300000190734863
2023-05-19T00:00:27.000Z,7.300000190734863
2023-05-19T00:00:42.000Z,7.300000190734863
2023-05-19T00:00:57.000Z,7.300000190734863
2023-05-19T00:01:12.000Z,7.300000190734863
2023-05-19T00:01:27.000Z,7.300000190734863
2023-05-19T00:01:42.000Z,7.300000190734863
2023-05-19T00:01:57.000Z,7.300000190734863
2023-05-19T00:02:12.000Z,7.300000190734863
2023-05-19T00:02:27.000Z,7.300000190734863
2023-05-19T00:02:42.000Z,7.300000190734863
2023-05-19T00:02:57.000Z,7.300000190734863
2023-05-19T00:03:12.000Z,7.199999809265137
2023-05-19T00:03:28.000Z,7.199999809265137
2023-05-19T00:03:43.000Z,7.199999809265137
2023-05-19T00:03:58.000Z,7.199999809265137
2023-05-19T00:04:13.000Z,7.199999809265137
2023-05-19T00:04:28.000Z,7.199999809265137
2023-05-19T00:04:43.000Z,7.199999809265137
2023-05-19T00:04:57.000Z,7.199999809265137
2023-05-19T00:05:12.000Z,7.199999809265137
2023-05-19T00:05:27.000Z,7.199999809265137
2023-05-19T00:05:42.000Z,7.199999809265137
2023-05-19T00:05:57.000Z,7.199999809265137
2023-05-19T00:06:12.000Z,7.099999904632568
2023-05-19T00:06:27.000Z,7.099999904632568
2023-05-19T00:06:42.000Z,7.099999904632568
2023-05-19T00:06:57.000Z,7.099999904632568
2023-05-19T00:07:12.000Z,7.099999904632568
2023-05-19T00:07:27.000Z,7.099999904632568
2023-05-19T00:07:42.000Z,7.099999904632568
2023-05-19T00:07:57.000Z,7.0
2023-05-19T00:08:12.000Z,7.099999904632568
2023-05-19T00:08:27.000Z,7.0
2023-05-19T00:08:42.000Z,7.0
2023-05-19T00:08:57.000Z,7.0
2023-05-19T00:09:12.000Z,7.0
2023-05-19T00:09:27.000Z,7.0
2023-05-19T00:09:42.000Z,7.0
2023-05-19T00:09:58.000Z,7.0
2023-05-19T00:10:13.000Z,6.900000095367432
2023-05-19T00:10:28.000Z,6.900000095367432
2023-05-19T00:10:43.000Z,6.900000095367432
2023-05-19T00:10:58.000Z,6.900000095367432
2023-05-19T00:11:13.000Z,6.900000095367432
2023-05-19T00:11:27.000Z,6.900000095367432
2023-05-19T00:11:42.000Z,6.800000190734863
2023-05-19T00:11:57.000Z,6.800000190734863
2023-05-19T00:12:12.000Z,6.800000190734863
2023-05-19T00:12:27.000Z,6.800000190734863
2023-05-19T00:12:42.000Z,6.800000190734863
2023-05-19T00:12:57.000Z,6.800000190734863
2023-05-19T00:13:12.000Z,6.800000190734863
2023-05-19T00:13:27.000Z,6.900000095367432
2023-05-19T00:13:42.000Z,6.800000190734863
2023-05-19T00:13:57.000Z,6.800000190734863
2023-05-19T00:14:12.000Z,6.900000095367432
2023-05-19T00:14:27.000Z,6.800000190734863
2023-05-19T00:14:42.000Z,6.900000095367432
2023-05-19T00:14:57.000Z,6.800000190734863
2023-05-19T00:15:12.000Z,6.900000095367432
2023-05-19T00:15:27.000Z,6.900000095367432
2023-05-19T00:15:42.000Z,6.800000190734863
2023-05-19T00:15:57.000Z,6.900000095367432
2023-05-19T00:16:13.000Z,6.800000190734863
2023-05-19T00:16:28.000Z,6.900000095367432
2023-05-19T00:16:43.000Z,6.900000095367432
2023-05-19T00:16:58.000Z,6.900000095367432
2023-05-19T00:17:13.000Z,6.900000095367432
2023-05-19T00:17:28.000Z,6.900000095367432
2023-05-19T00:17:42.000Z,6.900000095367432
2023-05-19T00:17:57.000Z,6.900000095367432
2023-05-19T00:18:12.000Z,6.900000095367432
2023-05-19T00:18:27.000Z,6.900000095367432
2023-05-19T00:18:42.000Z,6.900000095367432
2023-05-19T00:18:57.000Z,6.900000095367432
2023-05-19T00:19:12.000Z,6.900000095367432
2023-05-19T00:19:27.000Z,6.900000095367432
2023-05-19T00:19:42.000Z,6.900000095367432
2023-05-19T00:19:57.000Z,6.900000095367432
2023-05-19T00:20:12.000Z,6.900000095367432
2023-05-19T00:20:27.000Z,6.900000095367432
2023-05-19T00:20:42.000Z,6.900000095367432
2023-05-19T00:20:57.000Z,6.900000095367432
2023-05-19T00:21:12.000Z,6.900000095367432
2023-05-19T00:21:27.000Z,6.900000095367432
2023-05-19T00:21:42.000Z,6.900000095367432
2023-05-19T00:21:57.000Z,6.900000095367432
2023-05-19T00:22:12.000Z,6.900000095367432
2023-05-19T00:22:27.000Z,6.900000095367432
2023-05-19T00:22:43.000Z,6.900000095367432
2023-05-19T00:22:58.000Z,6.900000095367432
2023-05-19T00:23:13.000Z,6.900000095367432
2023-05-19T00:23:28.000Z,6.900000095367432
2023-05-19T00:23:43.000Z,6.900000095367432
2023-05-19T00:23:58.000Z,6.900000095367432
2023-05-19T00:24:12.000Z,6.900000095367432
2023-05-19T00:24:27.000Z,6.900000095367432
2023-05-19T00:24:42.000Z,6.900000095367432
2023-05-19T00:24:57.000Z,6.900000095367432
2023-05-19T00:25:12.000Z,6.900000095367432
2023-05-19T00:25:27.000Z,6.900000095367432
2023-05-19T00:25:42.000Z,6.900000095367432
2023-05-19T00:25:57.000Z,6.900000095367432
2023-05-19T00:26:12.000Z,6.900000095367432
2023-05-19T00:26:27.000Z,6.800000190734863
2023-05-19T00:26:42.000Z,6.800000190734863
2023-05-19T00:26:57.000Z,6.800000190734863
2023-05-19T00:27:12.000Z,6.800000190734863
2023-05-19T00:27:27.000Z,6.800000190734863
2023-05-19T00:27:42.000Z,6.800000190734863
2023-05-19T00:27:57.000Z,6.800000190734863
2023-05-19T00:28:12.000Z,6.800000190734863
2023-05-19T00:28:27.000Z,6.800000190734863
2023-05-19T00:28:42.000Z,6.800000190734863
2023-05-19T00:28:58.000Z,6.800000190734863
2023-05-19T00:29:13.000Z,6.800000190734863
2023-05-19T00:29:28.000Z,6.800000190734863
2023-05-19T00:29:43.000Z,6.800000190734863
2023-05-19T00:29:58.000Z,6.800000190734863
2023-05-19T00:30:13.000Z,6.800000190734863
2023-05-19T00:30:28.000Z,6.800000190734863
2023-05-19T00:30:42.000Z,6.800000190734863
2023-05-19T00:30:57.000Z,6.800000190734863
2023-05-19T00:31:12.000Z,6.800000190734863
2023-05-19T00:31:27.000Z,6.800000190734863
2023-05-19T00:31:42.000Z,6.800000190734863
2023-05-19T00:31:57.000Z,6.800000190734863
2023-05-19T00:32:12.000Z,6.800000190734863
2023-05-19T00:32:27.000Z,6.800000190734863
2023-05-19T00:32:42.000Z,6.800000190734863
2023-05-19T00:32:57.000Z,6.800000190734863
2023-05-19T00:33:12.000Z,6.800000190734863
2023-05-19T00:33:27.000Z,6.800000190734863
2023-05-19T00:33:42.000Z,6.800000190734863
2023-05-19T00:33:57.000Z,6.800000190734863
2023-05-19T00:34:12.000Z,6.800000190734863
2023-05-19T00:34:27.000Z,6.800000190734863
2023-05-19T00:34:42.000Z,6.800000190734863
2023-05-19T00:34:57.000Z,6.800000190734863
2023-05-19T00:35:12.000Z,6.800000190734863
2023-05-19T00:35:28.000Z,6.800000190734863
2023-05-19T00:35:43.000Z,6.800000190734863
2023-05-19T00:35:58.000Z,6.800000190734863
2023-05-19T00:36:13.000Z,6.800000190734863
2023-05-19T00:36:28.000Z,6.800000190734863
2023-05-19T00:36:43.000Z,6.800000190734863
2023-05-19T00:36:57.000Z,6.800000190734863
2023-05-19T00:37:12.000Z,6.800000190734863
2023-05-19T00:37:27.000Z,6.699999809265137
2023-05-19T00:37:42.000Z,6.800000190734863
2023-05-19T00:37:57.000Z,6.699999809265137
2023-05-19T00:38:12.000Z,6.699999809265137
2023-05-19T00:38:27.000Z,6.699999809265137
2023-05-19T00:38:42.000Z,6.699999809265137
2023-05-19T00:38:57.000Z,6.699999809265137
2023-05-19T00:39:12.000Z,6.699999809265137
2023-05-19T00:39:27.000Z,6.699999809265137
2023-05-19T00:39:42.000Z,6.699999809265137
2023-05-19T00:39:57.000Z,6.699999809265137
2023-05-19T00:40:12.000Z,6.699999809265137
2023-05-19T00:40:27.000Z,6.699999809265137
2023-05-19T00:40:42.000Z,6.599999904632568
2023-05-19T00:40:57.000Z,6.599999904632568
2023-05-19T00:41:12.000Z,6.599999904632568
2023-05-19T00:41:27.000Z,6.599999904632568
2023-05-19T00:41:42.000Z,6.599999904632568
2023-05-19T00:41:58.000Z,6.599999904632568
2023-05-19T00:42:13.000Z,6.599999904632568
2023-05-19T00:42:28.000Z,6.599999904632568
2023-05-19T00:42:43.000Z,6.599999904632568
2023-05-19T00:42:58.000Z,6.599999904632568
2023-05-19T00:43:13.000Z,6.599999904632568
2023-05-19T00:43:27.000Z,6.599999904632568
2023-05-19T00:43:42.000Z,6.599999904632568
2023-05-19T00:43:57.000Z,6.599999904632568
2023-05-19T00:44:12.000Z,6.599999904632568
2023-05-19T00:44:27.000Z,6.5
2023-05-19T00:44:42.000Z,6.5
2023-05-19T00:44:57.000Z,6.5
2023-05-19T00:45:12.000Z,6.599999904632568
2023-05-19T00:45:27.000Z,6.5
2023-05-19T00:45:42.000Z,6.5
2023-05-19T00:45:57.000Z,6.5
2023-05-19T00:46:12.000Z,6.5
2023-05-19T00:46:27.000Z,6.599999904632568
2023-05-19T00:46:42.000Z,6.5
2023-05-19T00:46:57.000Z,6.599999904632568
2023-05-19T00:47:12.000Z,6.5
2023-05-19T00:47:27.000Z,6.5
2023-05-19T00:47:42.000Z,6.599999904632568
2023-05-19T00:47:57.000Z,6.5
2023-05-19T00:48:13.000Z,6.5
2023-05-19T00:48:28.000Z,6.5
2023-05-19T00:48:43.000Z,6.5
2023-05-19T00:48:58.000Z,6.5
2023-05-19T00:49:13.000Z,6.5
2023-05-19T00:49:28.000Z,6.5
2023-05-19T00:49:43.000Z,6.5
2023-05-19T00:49:57.000Z,6.5
2023-05-19T00:50:12.000Z,6.5
2023-05-19T00:50:27.000Z,6.5
2023-05-19T00:50:42.000Z,6.5
2023-05-19T00:50:57.000Z,6.5
2023-05-19T00:51:12.000Z,6.5
2023-05-19T00:51:27.000Z,6.5
2023-05-19T00:51:42.000Z,6.5
2023-05-19T00:51:57.000Z,6.5
2023-05-19T00:52:12.000Z,6.5
2023-05-19T00:52:27.000Z,6.5
2023-05-19T00:52:42.000Z,6.5
2023-05-19T00:52:57.000Z,6.5
2023-05-19T00:53:12.000Z,6.5
2023-05-19T00:53:27.000Z,6.5
2023-05-19T00:53:42.000Z,6.5
2023-05-19T00:53:57.000Z,6.5
2023-05-19T00:54:12.000Z,6.5
2023-05-19T00:54:27.000Z,6.5
2023-05-19T00:54:43.000Z,6.5
2023-05-19T00:54:58.000Z,6.5
2023-05-19T00:55:13.000Z,6.5
2023-05-19T00:55:28.000Z,6.5
2023-05-19T00:55:43.000Z,6.5
2023-05-19T00:55:58.000Z,6.5
2023-05-19T00:56:13.000Z,6.5
2023-05-19T00:56:27.000Z,6.5
2023-05-19T00:56:42.000Z,6.5
2023-05-19T00:56:57.000Z,6.5
2023-05-19T00:57:12.000Z,6.5
2023-05-19T00:57:27.000Z,6.5
2023-05-19T00:57:42.000Z,6.5
2023-05-19T00:57:57.000Z,6.5
2023-05-19T00:58:12.000Z,6.5
2023-05-19T00:58:27.000Z,6.5
2023-05-19T00:58:42.000Z,6.5
2023-05-19T00:58:57.000Z,6.5
2023-05-19T00:59:12.000Z,6.5
2023-05-19T00:59:27.000Z,6.5
2023-05-19T00:59:42.000Z,6.5
2023-05-19T00:59:57.000Z,6.5
2023-05-19T01:00:12.000Z,6.5
2023-05-19T01:00:27.000Z,6.5
2023-05-19T01:00:42.000Z,6.5
2023-05-19T01:00:57.000Z,6.5
2023-05-19T01:01:13.000Z,6.5
2023-05-19T01:01:28.000Z,6.5
2023-05-19T01:01:43.000Z,6.400000095367432
2023-05-19T01:01:58.000Z,6.400000095367432
2023-05-19T01:02:13.000Z,6.400000095367432
2023-05-19T01:02:28.000Z,6.400000095367432
2023-05-19T01:02:43.000Z,6.300000190734863
2023-05-19T01:02:57.000Z,6.400000095367432
2023-05-19T01:03:12.000Z,6.300000190734863
2023-05-19T01:03:27.000Z,6.400000095367432
2023-05-19T01:03:42.000Z,6.300000190734863
2023-05-19T01:03:57.000Z,6.300000190734863
2023-05-19T01:04:12.000Z,6.300000190734863
2023-05-19T01:04:27.000Z,6.300000190734863
2023-05-19T01:04:42.000Z,6.300000190734863
2023-05-19T01:04:57.000Z,6.300000190734863
2023-05-19T01:05:12.000Z,6.300000190734863
2023-05-19T01:05:27.000Z,6.199999809265137
2023-05-19T01:05:42.000Z,6.099999904632568
2023-05-19T01:05:57.000Z,6.099999904632568
2023-05-19T01:06:12.000Z,6.099999904632568
2023-05-19T01:06:27.000Z,6.099999904632568
2023-05-19T01:06:42.000Z,6.199999809265137
2023-05-19T01:06:57.000Z,6.199999809265137
2023-05-19T01:07:12.000Z,6.199999809265137
2023-05-19T01:07:27.000Z,6.199999809265137
2023-05-19T01:07:43.000Z,6.199999809265137
2023-05-19T01:07:58.000Z,6.199999809265137
2023-05-19T01:08:13.000Z,6.199999809265137
2023-05-19T01:08:28.000Z,6.199999809265137
2023-05-19T01:08:43.000Z,6.199999809265137
2023-05-19T01:08:58.000Z,6.199999809265137
2023-05-19T01:09:13.000Z,6.199999809265137
2023-05-19T01:09:27.000Z,6.199999809265137
2023-05-19T01:09:42.000Z,6.199999809265137
2023-05-19T01:09:57.000Z,6.199999809265137
2023-05-19T01:10:12.000Z,6.199999809265137
2023-05-19T01:10:27.000Z,6.199999809265137
2023-05-19T01:10:42.000Z,6.099999904632568
2023-05-19T01:10:57.000Z,6.099999904632568
2023-05-19T01:11:12.000Z,6.0
2023-05-19T01:11:27.000Z,6.0
2023-05-19T01:11:42.000Z,6.0
2023-05-19T01:11:57.000Z,6.0
2023-05-19T01:12:12.000Z,5.900000095367432
2023-05-19T01:12:27.000Z,6.0
2023-05-19T01:12:42.000Z,6.0
2023-05-19T01:12:57.000Z,6.0
2023-05-19T01:13:12.000Z,6.0
2023-05-19T01:13:27.000Z,6.0
2023-05-19T01:13:42.000Z,6.0
2023-05-19T01:13:57.000Z,6.0
2023-05-19T01:14:13.000Z,6.0
2023-05-19T01:14:28.000Z,6.0
2023-05-19T01:14:43.000Z,6.0
2023-05-19T01:14:58.000Z,5.900000095367432
2023-05-19T01:15:13.000Z,5.900000095367432
2023-05-19T01:15:28.000Z,5.900000095367432
2023-05-19T01:15:43.000Z,5.800000190734863
2023-05-19T01:15:57.000Z,5.800000190734863
2023-05-19T01:16:12.000Z,5.699999809265137
2023-05-19T01:16:27.000Z,5.800000190734863
2023-05-19T01:16:42.000Z,5.800000190734863
2023-05-19T01:16:57.000Z,5.800000190734863
2023-05-19T01:17:12.000Z,5.800000190734863
2023-05-19T01:17:27.000Z,5.800000190734863
2023-05-19T01:17:42.000Z,5.800000190734863
2023-05-19T01:17:57.000Z,5.800000190734863
2023-05-19T01:18:12.000Z,5.800000190734863
2023-05-19T01:18:27.000Z,5.699999809265137
2023-05-19T01:18:42.000Z,5.699999809265137
2023-05-19T01:18:57.000Z,5.699999809265137
2023-05-19T01:19:12.000Z,5.699999809265137
2023-05-19T01:19:27.000Z,5.699999809265137
2023-05-19T01:19:42.000Z,5.699999809265137
2023-05-19T01:19:57.000Z,5.699999809265137
2023-05-19T01:20:12.000Z,5.699999809265137
2023-05-19T01:20:27.000Z,5.699999809265137
2023-05-19T01:20:42.000Z,5.699999809265137
2023-05-19T01:20:58.000Z,5.699999809265137
2023-05-19T01:21:13.000Z,5.699999809265137
2023-05-19T01:21:28.000Z,5.699999809265137
2023-05-19T01:21:43.000Z,5.699999809265137
2023-05-19T01:21:58.000Z,5.699999809265137
2023-05-19T01:22:13.000Z,5.699999809265137
2023-05-19T01:22:27.000Z,5.699999809265137
2023-05-19T01:22:42.000Z,5.699999809265137
2023-05-19T01:22:57.000Z,5.699999809265137
2023-05-19T01:23:12.000Z,5.699999809265137
2023-05-19T01:23:27.000Z,5.699999809265137
2023-05-19T01:23:42.000Z,5.599999904632568
2023-05-19T01:23:57.000Z,5.599999904632568
2023-05-19T01:24:12.000Z,5.599999904632568
2023-05-19T01:24:27.000Z,5.599999904632568
2023-05-19T01:24:42.000Z,5.599999904632568
2023-05-19T01:24:57.000Z,5.699999809265137
2023-05-19T01:25:12.000Z,5.599999904632568
2023-05-19T01:25:27.000Z,5.599999904632568
2023-05-19T01:25:42.000Z,5.699999809265137
2023-05-19T01:25:57.000Z,5.599999904632568
2023-05-19T01:26:12.000Z,5.699999809265137
2023-05-19T01:26:27.000Z,5.699999809265137
2023-05-19T01:26:42.000Z,5.699999809265137
2023-05-19T01:26:57.000Z,5.699999809265137
2023-05-19T01:27:12.000Z,5.699999809265137
2023-05-19T01:27:28.000Z,5.699999809265137
2023-05-19T01:27:43.000Z,5.699999809265137
2023-05-19T01:27:58.000Z,5.699999809265137
2023-05-19T01:28:13.000Z,5.699999809265137
2023-05-19T01:28:28.000Z,5.699999809265137
2023-05-19T01:28:43.000Z,5.699999809265137
2023-05-19T01:28:57.000Z,5.699999809265137
2023-05-19T01:29:12.000Z,5.699999809265137
2023-05-19T01:29:27.000Z,5.699999809265137
2023-05-19T01:29:42.000Z,5.699999809265137
2023-05-19T01:29:57.000Z,5.699999809265137
2023-05-19T01:30:12.000Z,5.699999809265137
2023-05-19T01:30:27.000Z,5.599999904632568
2023-05-19T01:30:42.000Z,5.599999904632568
2023-05-19T01:30:57.000Z,5.599999904632568
2023-05-19T01:31:12.000Z,5.599999904632568
2023-05-19T01:31:27.000Z,5.599999904632568
2023-05-19T01:31:42.000Z,5.599999904632568
2023-05-19T01:31:57.000Z,5.699999809265137
2023-05-19T01:32:12.000Z,5.699999809265137
2023-05-19T01:32:27.000Z,5.699999809265137
2023-05-19T01:32:42.000Z,5.699999809265137
2023-05-19T01:32:57.000Z,5.699999809265137
2023-05-19T01:33:12.000Z,5.699999809265137
2023-05-19T01:33:27.000Z,5.699999809265137
2023-05-19T01:33:42.000Z,5.699999809265137
2023-05-19T01:33:58.000Z,5.699999809265137
2023-05-19T01:34:13.000Z,5.699999809265137
2023-05-19T01:34:28.000Z,5.699999809265137
2023-05-19T01:34:43.000Z,5.699999809265137
2023-05-19T01:34:58.000Z,5.699999809265137
2023-05-19T01:35:13.000Z,5.599999904632568
2023-05-19T01:35:28.000Z,5.599999904632568
2023-05-19T01:35:42.000Z,5.599999904632568
2023-05-19T01:35:57.000Z,5.599999904632568
2023-05-19T01:36:12.000Z,5.599999904632568
2023-05-19T01:36:27.000Z,5.599999904632568
2023-05-19T01:36:42.000Z,5.599999904632568
2023-05-19T01:36:57.000Z,5.599999904632568
2023-05-19T01:37:12.000Z,5.599999904632568
2023-05-19T01:37:27.000Z,5.599999904632568
2023-05-19T01:37:42.000Z,5.599999904632568
2023-05-19T01:37:57.000Z,5.699999809265137
2023-05-19T01:38:12.000Z,5.699999809265137
2023-05-19T01:38:27.000Z,5.599999904632568
2023-05-19T01:38:42.000Z,5.599999904632568
2023-05-19T01:38:57.000Z,5.599999904632568
2023-05-19T01:39:12.000Z,5.599999904632568
2023-05-19T01:39:27.000Z,5.599999904632568
2023-05-19T01:39:42.000Z,5.599999904632568
2023-05-19T01:39:57.000Z,5.599999904632568
2023-05-19T01:40:12.000Z,5.599999904632568
2023-05-19T01:40:27.000Z,5.599999904632568
2023-05-19T01:40:43.000Z,5.599999904632568
2023-05-19T01:40:58.000Z,5.599999904632568
2023-05-19T01:41:13.000Z,5.599999904632568
2023-05-19T01:41:28.000Z,5.599999904632568
2023-05-19T01:41:43.000Z,5.599999904632568
2023-05-19T01:41:58.000Z,5.599999904632568
2023-05-19T01:42:12.000Z,5.599999904632568
2023-05-19T01:42:27.000Z,5.599999904632568
2023-05-19T01:42:42.000Z,5.599999904632568
2023-05-19T01:42:57.000Z,5.599999904632568
2023-05-19T01:43:12.000Z,5.599999904632568
2023-05-19T01:43:27.000Z,5.599999904632568
2023-05-19T01:43:42.000Z,5.599999904632568
2023-05-19T01:43:57.000Z,5.599999904632568
2023-05-19T01:44:12.000Z,5.599999904632568
2023-05-19T01:44:27.000Z,5.599999904632568
2023-05-19T01:44:42.000Z,5.599999904632568
2023-05-19T01:44:57.000Z,5.599999904632568
2023-05-19T01:45:12.000Z,5.599999904632568
2023-05-19T01:45:27.000Z,5.599999904632568
2023-05-19T01:45:42.000Z,5.599999904632568
2023-05-19T01:45:57.000Z,5.699999809265137
2023-05-19T01:46:12.000Z,5.699999809265137
2023-05-19T01:46:27.000Z,5.699999809265137
2023-05-19T01:46:42.000Z,5.699999809265137
2023-05-19T01:46:57.000Z,5.699999809265137
2023-05-19T01:47:13.000Z,5.699999809265137
2023-05-19T01:47:28.000Z,5.699999809265137
2023-05-19T01:47:43.000Z,5.699999809265137
2023-05-19T01:47:58.000Z,5.699999809265137
2023-05-19T01:48:13.000Z,5.699999809265137
2023-05-19T01:48:28.000Z,5.699999809265137
2023-05-19T01:48:42.000Z,5.699999809265137
2023-05-19T01:48:57.000Z,5.699999809265137
2023-05-19T01:49:12.000Z,5.699999809265137
2023-05-19T01:49:27.000Z,5.699999809265137
2023-05-19T01:49:42.000Z,5.699999809265137
2023-05-19T01:49:57.000Z,5.699999809265137
2023-05-19T01:50:12.000Z,5.699999809265137
2023-05-19T01:50:27.000Z,5.699999809265137
2023-05-19T01:50:42.000Z,5.699999809265137
2023-05-19T01:50:57.000Z,5.699999809265137
2023-05-19T01:51:12.000Z,5.699999809265137
2023-05-19T01:51:27.000Z,5.699999809265137
2023-05-19T01:51:42.000Z,5.699999809265137
2023-05-19T01:51:57.000Z,5.699999809265137
2023-05-19T01:52:12.000Z,5.699999809265137
2023-05-19T01:52:27.000Z,5.699999809265137
2023-05-19T01:52:42.000Z,5.699999809265137
2023-05-19T01:52:57.000Z,5.699999809265137
2023-05-19T01:53:12.000Z,5.699999809265137
2023-05-19T01:53:27.000Z,5.699999809265137
2023-05-19T01:53:43.000Z,5.699999809265137
2023-05-19T01:53:58.000Z,5.699999809265137
2023-05-19T01:54:13.000Z,5.699999809265137
2023-05-19T01:54:28.000Z,5.699999809265137
2023-05-19T01:54:43.000Z,5.699999809265137
2023-05-19T01:54:58.000Z,5.699999809265137
2023-05-19T01:55:13.000Z,5.699999809265137
2023-05-19T01:55:27.000Z,5.699999809265137
2023-05-19T01:55:42.000Z,5.699999809265137
2023-05-19T01:55:57.000Z,5.699999809265137
2023-05-19T01:56:12.000Z,5.699999809265137
2023-05-19T01:56:27.000Z,5.699999809265137
2023-05-19T01:56:42.000Z,5.699999809265137
2023-05-19T01:56:57.000Z,5.699999809265137
2023-05-19T01:57:12.000Z,5.699999809265137
2023-05-19T01:57:27.000Z,5.699999809265137
2023-05-19T01:57:42.000Z,5.699999809265137
2023-05-19T01:57:57.000Z,5.699999809265137
2023-05-19T01:58:12.000Z,5.699999809265137
2023-05-19T01:58:27.000Z,5.699999809265137
2023-05-19T01:58:42.000Z,5.699999809265137
2023-05-19T01:58:57.000Z,5.699999809265137
2023-05-19T01:59:12.000Z,5.699999809265137
2023-05-19T01:59:27.000Z,5.699999809265137
2023-05-19T01:59:42.000Z,5.699999809265137
2023-05-19T01:59:57.000Z,5.699999809265137
2023-05-19T02:00:12.000Z,5.699999809265137
2023-05-19T02:00:28.000Z,5.699999809265137
2023-05-19T02:00:43.000Z,5.699999809265137
2023-05-19T02:00:58.000Z,5.699999809265137
2023-05-19T02:01:13.000Z,5.699999809265137
2023-05-19T02:01:28.000Z,5.699999809265137
2023-05-19T02:01:43.000Z,5.699999809265137
2023-05-19T02:01:57.000Z,5.699999809265137
2023-05-19T02:02:12.000Z,5.699999809265137
2023-05-19T02:02:27.000Z,5.699999809265137
2023-05-19T02:02:42.000Z,5.699999809265137
2023-05-19T02:02:57.000Z,5.699999809265137
2023-05-19T02:03:12.000Z,5.699999809265137
2023-05-19T02:03:27.000Z,5.699999809265137
2023-05-19T02:03:42.000Z,5.699999809265137
2023-05-19T02:03:57.000Z,5.699999809265137
2023-05-19T02:04:12.000Z,5.699999809265137
2023-05-19T02:04:27.000Z,5.699999809265137
2023-05-19T02:04:42.000Z,5.699999809265137
2023-05-19T02:04:57.000Z,5.699999809265137
2023-05-19T02:05:12.000Z,5.699999809265137
2023-05-19T02:05:27.000Z,5.699999809265137
2023-05-19T02:05:42.000Z,5.699999809265137
2023-05-19T02:05:57.000Z,5.699999809265137
2023-05-19T02:06:12.000Z,5.699999809265137
2023-05-19T02:06:27.000Z,5.699999809265137
2023-05-19T02:06:42.000Z,5.699999809265137
2023-05-19T02:06:58.000Z,5.699999809265137
2023-05-19T02:07:13.000Z,5.599999904632568
2023-05-19T02:07:28.000Z,5.699999809265137
2023-05-19T02:07:43.000Z,5.599999904632568
2023-05-19T02:07:58.000Z,5.599999904632568
2023-05-19T02:08:13.000Z,5.599999904632568
2023-05-19T02:08:28.000Z,5.599999904632568
2023-05-19T02:08:42.000Z,5.599999904632568
2023-05-19T02:08:57.000Z,5.599999904632568
2023-05-19T02:09:12.000Z,5.599999904632568
2023-05-19T02:09:27.000Z,5.599999904632568
2023-05-19T02:09:42.000Z,5.599999904632568
2023-05-19T02:09:57.000Z,5.599999904632568
2023-05-19T02:10:12.000Z,5.599999904632568
2023-05-19T02:10:27.000Z,5.599999904632568
2023-05-19T02:10:42.000Z,5.599999904632568
2023-05-19T02:10:57.000Z,5.5
2023-05-19T02:11:12.000Z,5.5
2023-05-19T02:11:27.000Z,5.5
2023-05-19T02:11:42.000Z,5.5
2023-05-19T02:11:57.000Z,5.5
2023-05-19T02:12:12.000Z,5.5
2023-05-19T02:12:27.000Z,5.5
2023-05-19T02:12:42.000Z,5.5
2023-05-19T02:12:57.000Z,5.5
2023-05-19T02:13:12.000Z,5.5
2023-05-19T02:13:28.000Z,5.5
2023-05-19T02:13:43.000Z,5.5
2023-05-19T02:13:58.000Z,5.5
2023-05-19T02:14:13.000Z,5.5
2023-05-19T02:14:28.000Z,5.5
2023-05-19T02:14:43.000Z,5.5
2023-05-19T02:14:58.000Z,5.5
2023-05-19T02:15:12.000Z,5.5
2023-05-19T02:15:27.000Z,5.5
2023-05-19T02:15:42.000Z,5.5
2023-05-19T02:15:57.000Z,5.5
2023-05-19T02:16:12.000Z,5.5
2023-05-19T02:16:27.000Z,5.5
2023-05-19T02:16:42.000Z,5.5
2023-05-19T02:16:57.000Z,5.5
2023-05-19T02:17:12.000Z,5.5
2023-05-19T02:17:27.000Z,5.5
2023-05-19T02:17:42.000Z,5.5
2023-05-19T02:17:57.000Z,5.5
2023-05-19T02:18:12.000Z,5.5
2023-05-19T02:18:27.000Z,5.5
2023-05-19T02:18:42.000Z,5.5
2023-05-19T02:18:57.000Z,5.5
2023-05-19T02:19:12.000Z,5.5
2023-05-19T02:19:27.000Z,5.5
2023-05-19T02:19:42.000Z,5.5
2023-05-19T02:19:57.000Z,5.5
2023-05-19T02:20:13.000Z,5.5
2023-05-19T02:20:28.000Z,5.5
2023-05-19T02:20:43.000Z,5.400000095367432
2023-05-19T02:20:58.000Z,5.5
2023-05-19T02:21:13.000Z,5.5
2023-05-19T02:21:28.000Z,5.5
2023-05-19T02:21:42.000Z,5.400000095367432
2023-05-19T02:21:57.000Z,5.400000095367432
2023-05-19T02:22:12.000Z,5.5
2023-05-19T02:22:27.000Z,5.400000095367432
2023-05-19T02:22:42.000Z,5.5
2023-05-19T02:22:57.000Z,5.400000095367432
2023-05-19T02:23:12.000Z,5.400000095367432
2023-05-19T02:23:27.000Z,5.400000095367432
2023-05-19T02:23:42.000Z,5.400000095367432
2023-05-19T02:23:57.000Z,5.400000095367432
2023-05-19T02:24:12.000Z,5.400000095367432
2023-05-19T02:24:27.000Z,5.400000095367432
2023-05-19T02:24:42.000Z,5.300000190734863
2023-05-19T02:24:57.000Z,5.300000190734863
2023-05-19T02:25:12.000Z,5.300000190734863
2023-05-19T02:25:27.000Z,5.300000190734863
2023-05-19T02:25:42.000Z,5.300000190734863
2023-05-19T02:25:57.000Z,5.300000190734863
2023-05-19T02:26:12.000Z,5.300000190734863
2023-05-19T02:26:27.000Z,5.300000190734863
2023-05-19T02:26:43.000Z,5.300000190734863
2023-05-19T02:26:58.000Z,5.300000190734863
2023-05-19T02:27:13.000Z,5.300000190734863
2023-05-19T02:27:28.000Z,5.300000190734863
2023-05-19T02:27:43.000Z,5.300000190734863
2023-05-19T02:27:58.000Z,5.300000190734863
2023-05-19T02:28:13.000Z,5.300000190734863
2023-05-19T02:28:27.000Z,5.300000190734863
2023-05-19T02:28:42.000Z,5.300000190734863
2023-05-19T02:28:57.000Z,5.300000190734863
2023-05-19T02:29:12.000Z,5.300000190734863
2023-05-19T02:29:27.000Z,5.300000190734863
2023-05-19T02:29:42.000Z,5.300000190734863
2023-05-19T02:29:57.000Z,5.300000190734863